Pagrindinis puslapis
METAR-TAF:

METAR-TAF

Oro uostai :

Hutchinson County Airport

Borger, Teksasas, Jungtinės Amerikos Valstijos

platuma: 35-41-42N, ilguma: 101-23-42W, Aukštis: 931 m

Dabartinis oras

Ataskaita buvo paskelbta 48 minutes, ne 02:51 UTC
Vėjas 15 kt iš Pietų/Pietryčių su gūsio iki 22 kt
Temperatūra 19°C
Drėgmė 49%
Slėgis 1021 hPa
Matomumas: 16.1 km
Giedras dangus

METAR: KBGD 140251Z AUTO 15015G22KT 10SM CLR 19/08 A3014 RMK AO2 SLP177 T01940083 53002

Laikas: 22:39 (03:39 UTC)


TAF: trūkstamas

Orai ataskaitas ir orų prognozės (METAR, TAF).

turimą stotys yra geltonos ir raudonos taškus žemėlapyje.

Perkelti pele per norėdami pamatyti stoties vardą.

Tada spustelėkite, norėdami matyti oro stebėjimo ir prognozės.

Norėdami pakeisti žemėlapį: spustelėkite ant žalios mygtukų su juodo kryžiaus žemyn,; žalią mygtuką su brūkšneliu, jei norite nutolinti; arba žalių rodyklių gretimoms žemėlapius.


METAR-TAF: